Jetmore, KS (67854)

11:08 AM CST on November 22, 2014 (GMT -0600)
Schlegel Farms | Change Station
CLOSE
Current Station
Personal Weather Station
Location: Ness City, KS
Elevation: 2395 ft
Nearby Weather Stations

Elev 2395 ft 38.35 °N, 100.04 °W | Updated 33 seconds ago

Clear
Clear
52.4 °F
Feels Like 52.4 °F
N
12.0
Wind Variable Wind from South
Gusts 17.0 mph

Today
High -- | Low -- °F
--% Chance of Precip.
Yesterday
High -- | Low -- °F
Precip. -- in
7:27 AM 5:23 PM
New Moon, 0% visible
Pressure 29.86 in
Visibility 10.0 miles
Clouds Clear
Dew Point 39 °F
Humidity 60%
Rainfall 0.00 in
Snow Depth Not available.
UV 3 out of 12
Pollen .10 out of 12
Air Quality Not available.
Flu Activity Not available.
METAR KDDC 221652Z AUTO 21012KT 10SM CLR 10/03 A2985 RMK AO2 SLP110 T01000033

More Conditions Fewer Conditions

Pressure 29.86 in
Visibility 10.0 miles
Clouds Clear
Dew Point 39 °F
Humidity 60%
Rainfall 0.00 in
Snow Depth Not available.
UV 3 out of 12
Pollen .10 out of 12
Air Quality Not available.
Flu Activity Not available.
METAR KDDC 221652Z AUTO 21012KT 10SM CLR 10/03 A2985 RMK AO2 SLP110 T01000033

More Conditions Fewer Conditions

10-Day Weather Forecast

Almanac

Astronomy

Nov. 22, 2014 Rise Set
Actual Time
Civil Twilight
Nautical Twilight
Astronomical Twilight
Moon
Length of Visible Light
Length of Day
Tomorrow will be .
, % of the Moon is Illuminated

Today's Extremes

State Highs State Lows

Community

WunderPhotos

Upload Photos

1,772,860 photos uploaded!

WunderBlogs® & News

Nearby

Air Quality

  Air Quality AQ Index Pollutant
Not available.

Snow Depth

Station Depth Elevation

Earthquake Activity

City Distance Mag. Time & Date
Minimum magnitude displayed is 2.5.

Coastal Water Temperatures

Place Temperature

Nearby Weather Stations